Address 0xeb4473831cc2701b25f244ad40d64a2a73f2b040 5

Txn Hash Method
Block
From
To
Value [Txn Fee]
0xf058bb2cfd44a909409ceb0f9b3bd1fd1dbf1023feaeb2ecf8161ffe6c3cf65dSwap Exact Token...167608472022-07-01 14:24:361 day 18 hrs ago0xeb4473831cc2701b25f244ad40d64a2a73f2b040OUT Pangolin: Router0 AVAX0.0018106875 56.25
0xe500d19aa582eaf9aca520ebfd468c94c18c9a105d40a40e8e7baa35268e4eeeSwap Exact Token...167581032022-07-01 12:53:021 day 20 hrs ago0xeb4473831cc2701b25f244ad40d64a2a73f2b040OUT Pangolin: Router0 AVAX0.000852081 26.5
0x27015ef560e2b0518e2f48f2f523b800721a3a34cc028667c09fe81aec952486Swap Exact Token...167579702022-07-01 12:48:351 day 20 hrs ago0xeb4473831cc2701b25f244ad40d64a2a73f2b040OUT Pangolin: Router0 AVAX0.000851763 26.5
0x2b3f7f693441819c984ab3155c87b33f75ead899cb954e8c81a8977bd09d3315Swap Exact Token...167579342022-07-01 12:47:231 day 20 hrs ago0xeb4473831cc2701b25f244ad40d64a2a73f2b040OUT Pangolin: Router0 AVAX0.000851763 26.5
0xad3ce220803dbb16287f6e61280daa8c48f756c56cdd47d4f1763d9080edbcaaSwap Exact Token...167578912022-07-01 12:45:571 day 20 hrs ago0xeb4473831cc2701b25f244ad40d64a2a73f2b040OUT Pangolin: Router0 AVAX0.000852081 26.5
0x26e591f2ce96db72b930c6f48c06db9a952b11e98b41163e5e489ad9077f02cfSwap Exact Token...167578902022-07-01 12:45:551 day 20 hrs ago0xeb4473831cc2701b25f244ad40d64a2a73f2b040OUT Pangolin: Router0 AVAX0.000852081 26.5
0x7b0fc39bd4d74c33ae6c870cf9333e45bad96c24e7e6762772ff1137f3bd0712Swap Exact Token...167578672022-07-01 12:45:071 day 20 hrs ago0xeb4473831cc2701b25f244ad40d64a2a73f2b040OUT Pangolin: Router0 AVAX0.000852081 26.5
0x4b178a0bcd4c8cb0db198a55c19ac92142c8a2be9d41d5cbe115645d7cc9a31bSwap Exact Token...167577152022-07-01 12:40:031 day 20 hrs ago0xeb4473831cc2701b25f244ad40d64a2a73f2b040OUT Trader Joe: Router0 AVAX0.0008428855 26.5
0x3b588e2f4ac404628c1489e6c9c4faea528db1a8f1d1ff8b913150716a9d3710Swap Exact Token...167577032022-07-01 12:39:411 day 20 hrs ago0xeb4473831cc2701b25f244ad40d64a2a73f2b040OUT Pangolin: Router0 AVAX0.000851763 26.5
0xd800b631715fc4515f171ea0ab16d344fd18278aad0ecf2cb92ccb66f1617cb4Swap Exact Token...167576692022-07-01 12:38:331 day 20 hrs ago0xeb4473831cc2701b25f244ad40d64a2a73f2b040OUT Pangolin: Router0 AVAX0.000851763 26.5
0xb086f0b2ee9eb6f750e3c26ae36be200657121b90bd3166513045d10aeeed2c9Swap Exact Token...167572272022-07-01 12:23:461 day 21 hrs ago0xeb4473831cc2701b25f244ad40d64a2a73f2b040OUT Pangolin: Router0 AVAX0.000851763 26.5
0xbb1568dc8e42680df7556ff347bb2f36643de043ac4c36817080f55fdce84c87Swap Exact Token...167570512022-07-01 12:17:551 day 21 hrs ago0xeb4473831cc2701b25f244ad40d64a2a73f2b040OUT Pangolin: Router0 AVAX0.000851445 26.5
0x379be1526858a7c4cd178c7d404f949265ba0f4c87927054c90fb9fef848a8c8Swap Exact Token...167570502022-07-01 12:17:521 day 21 hrs ago0xeb4473831cc2701b25f244ad40d64a2a73f2b040OUT Pangolin: Router0 AVAX0.000852081 26.5
0xd1ea9d853de24300bc0e2fd633295a599a2b24ba3a876ab3b7f64a82bad808c7Swap Exact Token...167500922022-07-01 8:25:002 days 59 mins ago0xeb4473831cc2701b25f244ad40d64a2a73f2b040OUT Pangolin: Router0 AVAX0.00085065 26.5
0x16dfd4aa15c2076d7e8d294c4cf7b3fd55716e421645e8ded33884e05b2fe521Swap Exact Token...167489092022-07-01 7:45:262 days 1 hr ago0xeb4473831cc2701b25f244ad40d64a2a73f2b040OUT Trader Joe: Router0 AVAX0.000795625 25
0xb9f5718f73d9e3152350902b6aafcc8397183d87696022b875e53b5578d75ce6Swap Exact Token...167486852022-07-01 7:38:012 days 1 hr ago0xeb4473831cc2701b25f244ad40d64a2a73f2b040OUT Trader Joe: Router0 AVAX0.000795625 25
0x033b06760fdf193b96f7af10bdac4655f530e72b9839290798a4dee197d11037Swap Exact Token...167485622022-07-01 7:33:592 days 1 hr ago0xeb4473831cc2701b25f244ad40d64a2a73f2b040OUT Trader Joe: Router0 AVAX0.001807501418 56.870069478
0x43c4c8b397373d93325a9f5a467cf3a0503a17bd2805d9bcca61d7226b1220b1Swap Exact Token...167173602022-06-30 14:13:102 days 19 hrs ago0xeb4473831cc2701b25f244ad40d64a2a73f2b040OUT Trader Joe: Router0 AVAX0.001842657812 57.8125
0xa11741c8556dff797c20fe8e7072df618e4c9016dedccda28d325896ddeab642Swap Exact Token...167165812022-06-30 13:47:232 days 19 hrs ago0xeb4473831cc2701b25f244ad40d64a2a73f2b040OUT Trader Joe: Router0 AVAX0.001915841177 60.108592776
0x6a0a1353493b808c05292470afec5e6937b21280f543010f5c762b4f3a58a0eaSwap Exact Token...167165182022-06-30 13:45:242 days 19 hrs ago0xeb4473831cc2701b25f244ad40d64a2a73f2b040OUT Trader Joe: Router0 AVAX0.001908983169 59.938559127
0x1b96b20b218129e46ef830b6b5ca3738c16cfcc9907bdf1e2fce003d36ff67acSwap Exact Token...167161582022-06-30 13:33:412 days 19 hrs ago0xeb4473831cc2701b25f244ad40d64a2a73f2b040OUT Trader Joe: Router0 AVAX0.001863677874 58.471994314
0x9625d994ebf02d945f166bb5c96b358daed271d4829fa326baeb62aec4896231Swap Exact Token...167120632022-06-30 11:16:562 days 22 hrs ago0xeb4473831cc2701b25f244ad40d64a2a73f2b040OUT Trader Joe: Router0 AVAX0.001851103477 58.165073935
0x2c53842cf49ebd4fc539eeb3c6e0536ef8d1f50d6cb6a54a00b128eeab8bc409Swap Exact Token...167093292022-06-30 9:45:352 days 23 hrs ago0xeb4473831cc2701b25f244ad40d64a2a73f2b040OUT Trader Joe: Router0 AVAX0.001842741859 58.022666303
0xcc72273d4a201de79980a28026cb770ec12c487008717526bce26fb612a781f1Swap Exact Token...167089652022-06-30 9:33:322 days 23 hrs ago0xeb4473831cc2701b25f244ad40d64a2a73f2b040OUT Trader Joe: Router0 AVAX0.001908427321 60.000230182
0x8cc1be8fd0d034d815b5cfde496668d85cad9465c94bccfbe1a1546e04080184Swap Exact Token...167086062022-06-30 9:21:333 days 2 mins ago0xeb4473831cc2701b25f244ad40d64a2a73f2b040OUT Trader Joe: Router0 AVAX0.001890724659 59.410044274
[ Download CSV Export 
Latest 1 internal transaction
Parent Txn Hash Block From To Value
0x68f46b99770e683f5e69f0c6a62a0d8708139c6fc6373388226e8207ec7c3452122715792022-03-18 16:55:30106 days 16 hrs ago Wrapped AVAX0xeb4473831cc2701b25f244ad40d64a2a73f2b0402,150 AVAX
[ Download CSV Export 
Loading

Contract Name:
0

Compiler Version
0

Optimization Enabled:
0

Other Settings:
-NA-
Block Transaction Gas Used Reward
Age Block Fee Address BC Fee Address Voting Power Jailed Incoming
Block Uncle Number Difficulty Gas Used Reward
Loading
Make sure to use the "Vote Down" button for any spammy posts, and the "Vote Up" for interesting conversations.